Strona główna
METAR-TAF:

METAR-TAF

Lotnisko :

Port lotniczy Pecz-Pogány

Pecz, Węgry

Szerokość geograficzna: 46-06N, Długość geograficzna: 018-14E, wysokość: 201 m

Aktualna obserwacja pogody

Raport powstał 32 minut temu, godzina 15:15 UTC
Wiatr 3 kt od południe
Temperatura 17°C
Wilgotność 39%
Ciśnienie 1012 hPa
Widzialność 10 km lub więcej
Brak chmur poniżej 1500 m i brak chmur cumulonimbus

METAR: LHPP 281515Z 18003KT CAVOK 17/03 Q1012

czas: 16:47 (15:47 UTC)

Prognoza

Raport powstał 1 godzina i 32 minut temu, godzina 14:15 UTC
Prognoza ważna od 28 godzina 15 UTC do 28 godzina 24 UTC
Wiatr 3 kt z kierunków zmiennych
Widzialność 10 km lub więcej
Brak chmur poniżej 1500 m i brak chmur cumulonimbus

TAF: LHPP 281415Z 2815/2824 VRB03KT CAVOK

Obserwacja i prognoza pogody dla ponad 4000 lotnisk (raport METAR i TAF).

Dostępne stacje oznaczono żółtymi i czerwonymi punktami na mapie.

Najedź kursorem aby zobaczyć nazwę stacji.

Kliknij aby zobaczyć obserwacje i prognozy pogody.

Aby zmienić mapę: kliknij na zielony przycisk z czarnym krzyżykiem, aby powiększyć; na zielony przycisk z myślnikiem, aby pomniejszyć; na zielone strzałki, aby przejść do map sąsiednich.


METAR-TAF: